sensor_id;sensor_type;location;lat;lon;timestamp;temperature;humidity
12115;DHT22;6121;49.810;6.418;2023-07-29T00:02:09;20.80;99.90
12115;DHT22;6121;49.810;6.418;2023-07-29T00:04:35;20.70;99.90
12115;DHT22;6121;49.810;6.418;2023-07-29T00:07:01;20.70;99.90
12115;DHT22;6121;49.810;6.418;2023-07-29T00:09:27;20.70;99.90
12115;DHT22;6121;49.810;6.418;2023-07-29T00:11:53;20.80;99.90
12115;DHT22;6121;49.810;6.418;2023-07-29T00:14:19;20.60;99.90
12115;DHT22;6121;49.810;6.418;2023-07-29T00:16:45;20.70;99.90
12115;DHT22;6121;49.810;6.418;2023-07-29T00:19:11;20.70;99.90
12115;DHT22;6121;49.810;6.418;2023-07-29T00:21:37;20.70;99.90
12115;DHT22;6121;49.810;6.418;2023-07-29T00:24:03;20.60;99.90
12115;DHT22;6121;49.810;6.418;2023-07-29T00:26:29;20.60;99.90
12115;DHT22;6121;49.810;6.418;2023-07-29T00:28:56;20.60;99.90
12115;DHT22;6121;49.810;6.418;2023-07-29T00:31:22;20.60;99.90
12115;DHT22;6121;49.810;6.418;2023-07-29T00:33:47;20.60;99.90
12115;DHT22;6121;49.810;6.418;2023-07-29T00:36:14;20.60;99.90
12115;DHT22;6121;49.810;6.418;2023-07-29T00:38:40;20.50;99.90
12115;DHT22;6121;49.810;6.418;2023-07-29T00:41:07;20.50;99.90
12115;DHT22;6121;49.810;6.418;2023-07-29T00:43:34;20.40;99.90
12115;DHT22;6121;49.810;6.418;2023-07-29T00:46:03;20.40;99.90
12115;DHT22;6121;49.810;6.418;2023-07-29T00:48:28;20.30;99.90
12115;DHT22;6121;49.810;6.418;2023-07-29T00:50:55;20.30;99.90
12115;DHT22;6121;49.810;6.418;2023-07-29T00:53:21;20.30;99.90
12115;DHT22;6121;49.810;6.418;2023-07-29T00:55:49;20.30;99.90
12115;DHT22;6121;49.810;6.418;2023-07-29T00:58:16;20.30;99.90
12115;DHT22;6121;49.810;6.418;2023-07-29T01:00:41;20.30;99.90
12115;DHT22;6121;49.810;6.418;2023-07-29T01:03:08;20.50;99.90
12115;DHT22;6121;49.810;6.418;2023-07-29T01:06:07;20.40;99.90
12115;DHT22;6121;49.810;6.418;2023-07-29T01:08:43;20.40;99.90
12115;DHT22;6121;49.810;6.418;2023-07-29T01:11:35;20.30;99.90
12115;DHT22;6121;49.810;6.418;2023-07-29T01:14:10;20.30;99.90
12115;DHT22;6121;49.810;6.418;2023-07-29T01:16:42;20.30;99.90
12115;DHT22;6121;49.810;6.418;2023-07-29T01:19:31;20.30;99.90
12115;DHT22;6121;49.810;6.418;2023-07-29T01:22:01;20.20;99.90
12115;DHT22;6121;49.810;6.418;2023-07-29T01:24:29;20.20;99.90
12115;DHT22;6121;49.810;6.418;2023-07-29T01:26:55;20.20;99.90
12115;DHT22;6121;49.810;6.418;2023-07-29T01:29:21;20.20;99.90
12115;DHT22;6121;49.810;6.418;2023-07-29T01:31:48;20.40;99.90
12115;DHT22;6121;49.810;6.418;2023-07-29T01:34:28;20.10;99.90
12115;DHT22;6121;49.810;6.418;2023-07-29T01:36:57;20.20;99.90
12115;DHT22;6121;49.810;6.418;2023-07-29T01:39:24;20.20;99.90
12115;DHT22;6121;49.810;6.418;2023-07-29T01:41:51;20.10;99.90
12115;DHT22;6121;49.810;6.418;2023-07-29T01:44:17;20.10;99.90
12115;DHT22;6121;49.810;6.418;2023-07-29T01:46:44;20.10;99.90
12115;DHT22;6121;49.810;6.418;2023-07-29T01:49:10;19.90;99.90
12115;DHT22;6121;49.810;6.418;2023-07-29T01:51:36;20.10;99.90
12115;DHT22;6121;49.810;6.418;2023-07-29T01:54:02;20.10;99.90
12115;DHT22;6121;49.810;6.418;2023-07-29T01:56:28;20.10;99.90
12115;DHT22;6121;49.810;6.418;2023-07-29T01:58:55;20.00;99.90
12115;DHT22;6121;49.810;6.418;2023-07-29T02:01:21;20.20;99.90
12115;DHT22;6121;49.810;6.418;2023-07-29T02:03:47;20.00;99.90
12115;DHT22;6121;49.810;6.418;2023-07-29T02:06:21;20.00;99.90
12115;DHT22;6121;49.810;6.418;2023-07-29T02:08:48;20.00;99.90
12115;DHT22;6121;49.810;6.418;2023-07-29T02:11:14;20.00;99.90
12115;DHT22;6121;49.810;6.418;2023-07-29T02:13:39;20.00;99.90
12115;DHT22;6121;49.810;6.418;2023-07-29T02:16:06;20.00;99.90
12115;DHT22;6121;49.810;6.418;2023-07-29T02:18:32;20.00;99.90
12115;DHT22;6121;49.810;6.418;2023-07-29T02:20:58;20.00;99.90
12115;DHT22;6121;49.810;6.418;2023-07-29T02:23:24;19.90;99.90
12115;DHT22;6121;49.810;6.418;2023-07-29T02:25:50;20.00;99.90
12115;DHT22;6121;49.810;6.418;2023-07-29T02:28:16;20.00;99.90
12115;DHT22;6121;49.810;6.418;2023-07-29T02:30:42;19.90;99.90
12115;DHT22;6121;49.810;6.418;2023-07-29T02:33:10;19.90;99.90
12115;DHT22;6121;49.810;6.418;2023-07-29T02:35:37;19.90;99.90
12115;DHT22;6121;49.810;6.418;2023-07-29T02:38:03;19.70;99.90
12115;DHT22;6121;49.810;6.418;2023-07-29T02:40:29;19.70;99.90
12115;DHT22;6121;49.810;6.418;2023-07-29T02:42:56;19.80;99.90
12115;DHT22;6121;49.810;6.418;2023-07-29T02:45:22;19.80;99.90
12115;DHT22;6121;49.810;6.418;2023-07-29T02:47:47;19.80;99.90
12115;DHT22;6121;49.810;6.418;2023-07-29T02:50:14;19.90;99.90
12115;DHT22;6121;49.810;6.418;2023-07-29T02:52:40;19.80;99.90
12115;DHT22;6121;49.810;6.418;2023-07-29T02:55:06;19.80;99.90
12115;DHT22;6121;49.810;6.418;2023-07-29T02:57:31;19.80;99.90
12115;DHT22;6121;49.810;6.418;2023-07-29T02:59:57;19.80;99.90
12115;DHT22;6121;49.810;6.418;2023-07-29T03:02:23;19.80;99.90
12115;DHT22;6121;49.810;6.418;2023-07-29T03:04:51;19.80;99.90
12115;DHT22;6121;49.810;6.418;2023-07-29T03:07:17;19.80;99.90
12115;DHT22;6121;49.810;6.418;2023-07-29T03:09:42;19.80;99.90
12115;DHT22;6121;49.810;6.418;2023-07-29T03:12:09;19.80;99.90
12115;DHT22;6121;49.810;6.418;2023-07-29T03:14:35;19.80;99.90
12115;DHT22;6121;49.810;6.418;2023-07-29T03:17:04;19.70;99.90
12115;DHT22;6121;49.810;6.418;2023-07-29T03:19:30;19.80;99.90
12115;DHT22;6121;49.810;6.418;2023-07-29T03:21:57;19.80;99.90
12115;DHT22;6121;49.810;6.418;2023-07-29T03:24:22;19.70;99.90
12115;DHT22;6121;49.810;6.418;2023-07-29T03:26:48;19.70;99.90
12115;DHT22;6121;49.810;6.418;2023-07-29T03:29:14;19.50;99.90
12115;DHT22;6121;49.810;6.418;2023-07-29T03:31:40;19.60;99.90
12115;DHT22;6121;49.810;6.418;2023-07-29T03:34:06;19.70;99.90
12115;DHT22;6121;49.810;6.418;2023-07-29T03:36:32;19.70;99.90
12115;DHT22;6121;49.810;6.418;2023-07-29T03:38:59;19.70;99.90
12115;DHT22;6121;49.810;6.418;2023-07-29T03:41:26;19.70;99.90
12115;DHT22;6121;49.810;6.418;2023-07-29T03:43:52;19.70;99.90
12115;DHT22;6121;49.810;6.418;2023-07-29T03:46:18;19.70;99.90
12115;DHT22;6121;49.810;6.418;2023-07-29T03:48:47;19.60;99.90
12115;DHT22;6121;49.810;6.418;2023-07-29T03:51:14;19.60;99.90
12115;DHT22;6121;49.810;6.418;2023-07-29T03:53:39;19.60;99.90
12115;DHT22;6121;49.810;6.418;2023-07-29T03:56:05;19.60;99.90
12115;DHT22;6121;49.810;6.418;2023-07-29T03:58:31;19.60;99.90
12115;DHT22;6121;49.810;6.418;2023-07-29T04:00:58;19.70;99.90
12115;DHT22;6121;49.810;6.418;2023-07-29T04:03:26;19.60;99.90
12115;DHT22;6121;49.810;6.418;2023-07-29T04:05:53;19.60;99.90
12115;DHT22;6121;49.810;6.418;2023-07-29T04:08:20;19.60;99.90
12115;DHT22;6121;49.810;6.418;2023-07-29T04:10:45;19.60;99.90
12115;DHT22;6121;49.810;6.418;2023-07-29T04:13:11;19.30;99.90
12115;DHT22;6121;49.810;6.418;2023-07-29T04:15:37;19.60;99.90
12115;DHT22;6121;49.810;6.418;2023-07-29T04:18:04;19.60;99.90
12115;DHT22;6121;49.810;6.418;2023-07-29T04:20:30;19.80;99.90
12115;DHT22;6121;49.810;6.418;2023-07-29T04:22:56;19.60;99.90
12115;DHT22;6121;49.810;6.418;2023-07-29T04:25:22;19.60;99.90
12115;DHT22;6121;49.810;6.418;2023-07-29T04:27:48;19.60;99.90
12115;DHT22;6121;49.810;6.418;2023-07-29T04:30:14;19.70;99.90
12115;DHT22;6121;49.810;6.418;2023-07-29T04:32:40;19.60;99.90
12115;DHT22;6121;49.810;6.418;2023-07-29T04:35:09;19.60;99.90
12115;DHT22;6121;49.810;6.418;2023-07-29T04:37:36;19.60;99.90
12115;DHT22;6121;49.810;6.418;2023-07-29T04:40:02;19.50;99.90
12115;DHT22;6121;49.810;6.418;2023-07-29T04:42:30;19.40;99.90
12115;DHT22;6121;49.810;6.418;2023-07-29T04:44:56;19.30;99.90
12115;DHT22;6121;49.810;6.418;2023-07-29T04:47:22;19.40;99.90
12115;DHT22;6121;49.810;6.418;2023-07-29T04:49:48;19.40;99.90
12115;DHT22;6121;49.810;6.418;2023-07-29T04:52:14;19.30;99.90
12115;DHT22;6121;49.810;6.418;2023-07-29T04:54:41;19.40;99.90
12115;DHT22;6121;49.810;6.418;2023-07-29T04:57:07;19.40;99.90
12115;DHT22;6121;49.810;6.418;2023-07-29T04:59:34;19.30;99.90
12115;DHT22;6121;49.810;6.418;2023-07-29T05:01:59;19.30;99.90
12115;DHT22;6121;49.810;6.418;2023-07-29T05:04:25;19.30;99.90
12115;DHT22;6121;49.810;6.418;2023-07-29T05:06:51;19.20;99.90
12115;DHT22;6121;49.810;6.418;2023-07-29T05:09:18;19.20;99.90
12115;DHT22;6121;49.810;6.418;2023-07-29T05:11:47;19.20;99.90
12115;DHT22;6121;49.810;6.418;2023-07-29T05:14:13;19.30;99.90
12115;DHT22;6121;49.810;6.418;2023-07-29T05:16:41;19.30;99.90
12115;DHT22;6121;49.810;6.418;2023-07-29T05:19:07;19.30;99.90
12115;DHT22;6121;49.810;6.418;2023-07-29T05:21:33;19.30;99.90
12115;DHT22;6121;49.810;6.418;2023-07-29T05:24:00;19.20;99.90
12115;DHT22;6121;49.810;6.418;2023-07-29T05:26:26;19.20;99.90
12115;DHT22;6121;49.810;6.418;2023-07-29T05:28:52;19.20;99.90
12115;DHT22;6121;49.810;6.418;2023-07-29T05:31:18;19.20;99.90
12115;DHT22;6121;49.810;6.418;2023-07-29T05:33:44;19.30;99.90
12115;DHT22;6121;49.810;6.418;2023-07-29T05:36:10;19.20;99.90
12115;DHT22;6121;49.810;6.418;2023-07-29T05:38:36;19.20;99.90
12115;DHT22;6121;49.810;6.418;2023-07-29T05:41:02;19.20;99.90
12115;DHT22;6121;49.810;6.418;2023-07-29T05:43:28;19.20;99.90
12115;DHT22;6121;49.810;6.418;2023-07-29T05:45:54;19.20;99.90
12115;DHT22;6121;49.810;6.418;2023-07-29T05:48:21;19.30;99.90
12115;DHT22;6121;49.810;6.418;2023-07-29T05:50:47;19.30;99.90
12115;DHT22;6121;49.810;6.418;2023-07-29T05:53:14;19.30;99.90
12115;DHT22;6121;49.810;6.418;2023-07-29T05:55:42;19.40;99.90
12115;DHT22;6121;49.810;6.418;2023-07-29T05:58:07;19.30;99.90
12115;DHT22;6121;49.810;6.418;2023-07-29T06:00:33;19.20;99.90
12115;DHT22;6121;49.810;6.418;2023-07-29T06:03:00;19.20;99.90
12115;DHT22;6121;49.810;6.418;2023-07-29T06:05:25;19.20;99.90
12115;DHT22;6121;49.810;6.418;2023-07-29T06:07:51;19.30;99.90
12115;DHT22;6121;49.810;6.418;2023-07-29T06:10:17;19.20;99.90
12115;DHT22;6121;49.810;6.418;2023-07-29T06:12:44;19.10;99.90
12115;DHT22;6121;49.810;6.418;2023-07-29T06:15:10;19.20;99.90
12115;DHT22;6121;49.810;6.418;2023-07-29T06:17:37;19.30;99.90
12115;DHT22;6121;49.810;6.418;2023-07-29T06:20:05;19.30;99.90
12115;DHT22;6121;49.810;6.418;2023-07-29T06:22:31;19.40;99.90
12115;DHT22;6121;49.810;6.418;2023-07-29T06:24:57;19.40;99.90
12115;DHT22;6121;49.810;6.418;2023-07-29T06:27:23;19.50;99.90
12115;DHT22;6121;49.810;6.418;2023-07-29T06:29:50;19.50;99.90
12115;DHT22;6121;49.810;6.418;2023-07-29T06:32:16;19.50;99.90
12115;DHT22;6121;49.810;6.418;2023-07-29T06:34:42;19.50;99.90
12115;DHT22;6121;49.810;6.418;2023-07-29T06:37:08;19.50;99.90
12115;DHT22;6121;49.810;6.418;2023-07-29T06:39:33;19.50;99.90
12115;DHT22;6121;49.810;6.418;2023-07-29T06:41:59;19.50;99.90
12115;DHT22;6121;49.810;6.418;2023-07-29T06:44:25;19.40;99.90
12115;DHT22;6121;49.810;6.418;2023-07-29T06:46:51;19.50;99.90
12115;DHT22;6121;49.810;6.418;2023-07-29T06:49:17;19.50;99.90
12115;DHT22;6121;49.810;6.418;2023-07-29T06:51:42;19.60;99.90
12115;DHT22;6121;49.810;6.418;2023-07-29T06:54:08;19.60;99.90
12115;DHT22;6121;49.810;6.418;2023-07-29T06:56:34;19.70;99.90
12115;DHT22;6121;49.810;6.418;2023-07-29T06:59:00;19.70;99.90
12115;DHT22;6121;49.810;6.418;2023-07-29T07:01:25;19.70;99.90
12115;DHT22;6121;49.810;6.418;2023-07-29T07:03:51;19.90;99.90
12115;DHT22;6121;49.810;6.418;2023-07-29T07:06:22;19.90;99.90
12115;DHT22;6121;49.810;6.418;2023-07-29T07:08:47;20.00;99.90
12115;DHT22;6121;49.810;6.418;2023-07-29T07:11:13;20.00;99.90
12115;DHT22;6121;49.810;6.418;2023-07-29T07:13:39;19.90;99.90
12115;DHT22;6121;49.810;6.418;2023-07-29T07:16:05;20.00;99.90
12115;DHT22;6121;49.810;6.418;2023-07-29T07:18:30;20.00;99.90
12115;DHT22;6121;49.810;6.418;2023-07-29T07:20:56;19.90;99.90
12115;DHT22;6121;49.810;6.418;2023-07-29T07:23:22;20.10;99.90
12115;DHT22;6121;49.810;6.418;2023-07-29T07:25:48;20.00;99.90
12115;DHT22;6121;49.810;6.418;2023-07-29T07:28:13;20.00;99.90
12115;DHT22;6121;49.810;6.418;2023-07-29T07:30:40;20.00;99.90
12115;DHT22;6121;49.810;6.418;2023-07-29T07:33:07;20.10;99.90
12115;DHT22;6121;49.810;6.418;2023-07-29T07:35:33;20.10;99.90
12115;DHT22;6121;49.810;6.418;2023-07-29T07:38:10;20.10;99.90
12115;DHT22;6121;49.810;6.418;2023-07-29T07:40:36;20.10;99.90
12115;DHT22;6121;49.810;6.418;2023-07-29T07:43:02;20.20;99.90
12115;DHT22;6121;49.810;6.418;2023-07-29T07:45:28;20.20;99.90
12115;DHT22;6121;49.810;6.418;2023-07-29T07:47:53;20.30;99.90
12115;DHT22;6121;49.810;6.418;2023-07-29T07:50:20;20.40;99.90
12115;DHT22;6121;49.810;6.418;2023-07-29T07:52:46;20.60;99.90
12115;DHT22;6121;49.810;6.418;2023-07-29T07:55:11;20.80;99.90
12115;DHT22;6121;49.810;6.418;2023-07-29T07:57:37;20.80;99.90
12115;DHT22;6121;49.810;6.418;2023-07-29T08:00:03;21.00;99.90
12115;DHT22;6121;49.810;6.418;2023-07-29T08:02:38;21.00;99.90
12115;DHT22;6121;49.810;6.418;2023-07-29T08:05:04;21.10;99.90
12115;DHT22;6121;49.810;6.418;2023-07-29T08:07:30;21.40;99.90
12115;DHT22;6121;49.810;6.418;2023-07-29T08:09:56;21.80;99.90
12115;DHT22;6121;49.810;6.418;2023-07-29T08:12:22;22.10;99.90
12115;DHT22;6121;49.810;6.418;2023-07-29T08:14:47;22.30;99.90
12115;DHT22;6121;49.810;6.418;2023-07-29T08:17:13;22.40;99.90
12115;DHT22;6121;49.810;6.418;2023-07-29T08:19:39;22.60;99.90
12115;DHT22;6121;49.810;6.418;2023-07-29T08:22:05;22.70;99.90
12115;DHT22;6121;49.810;6.418;2023-07-29T08:24:31;22.80;99.90
12115;DHT22;6121;49.810;6.418;2023-07-29T08:26:56;23.10;99.90
12115;DHT22;6121;49.810;6.418;2023-07-29T08:29:22;23.40;99.90
12115;DHT22;6121;49.810;6.418;2023-07-29T08:31:48;23.60;99.90
12115;DHT22;6121;49.810;6.418;2023-07-29T08:34:14;24.00;99.90
12115;DHT22;6121;49.810;6.418;2023-07-29T08:36:40;24.10;99.90
12115;DHT22;6121;49.810;6.418;2023-07-29T08:39:05;24.10;99.90
12115;DHT22;6121;49.810;6.418;2023-07-29T08:41:48;24.00;99.90
12115;DHT22;6121;49.810;6.418;2023-07-29T08:44:26;24.00;99.90
12115;DHT22;6121;49.810;6.418;2023-07-29T08:46:55;24.10;99.90
12115;DHT22;6121;49.810;6.418;2023-07-29T08:49:23;24.40;99.90
12115;DHT22;6121;49.810;6.418;2023-07-29T08:51:51;24.60;99.90
12115;DHT22;6121;49.810;6.418;2023-07-29T08:54:18;24.80;99.90
12115;DHT22;6121;49.810;6.418;2023-07-29T08:56:45;25.00;99.90
12115;DHT22;6121;49.810;6.418;2023-07-29T08:59:11;25.30;99.90
12115;DHT22;6121;49.810;6.418;2023-07-29T09:01:41;25.90;99.90
12115;DHT22;6121;49.810;6.418;2023-07-29T09:04:07;26.30;99.90
12115;DHT22;6121;49.810;6.418;2023-07-29T09:06:35;26.60;99.90
12115;DHT22;6121;49.810;6.418;2023-07-29T09:09:01;26.40;99.90
12115;DHT22;6121;49.810;6.418;2023-07-29T09:11:28;26.60;99.90
12115;DHT22;6121;49.810;6.418;2023-07-29T09:13:54;26.70;99.90
12115;DHT22;6121;49.810;6.418;2023-07-29T09:16:20;26.80;99.90
12115;DHT22;6121;49.810;6.418;2023-07-29T09:18:50;26.70;99.90
12115;DHT22;6121;49.810;6.418;2023-07-29T09:21:17;27.00;99.90
12115;DHT22;6121;49.810;6.418;2023-07-29T09:23:44;27.30;99.90
12115;DHT22;6121;49.810;6.418;2023-07-29T09:26:10;27.60;99.90
12115;DHT22;6121;49.810;6.418;2023-07-29T09:28:38;27.70;99.90
12115;DHT22;6121;49.810;6.418;2023-07-29T09:31:04;27.90;99.90
12115;DHT22;6121;49.810;6.418;2023-07-29T09:33:33;28.30;99.90
12115;DHT22;6121;49.810;6.418;2023-07-29T09:36:09;28.80;99.90
12115;DHT22;6121;49.810;6.418;2023-07-29T09:38:35;28.90;99.90
12115;DHT22;6121;49.810;6.418;2023-07-29T09:41:01;29.00;99.90
12115;DHT22;6121;49.810;6.418;2023-07-29T09:43:35;29.20;99.90
12115;DHT22;6121;49.810;6.418;2023-07-29T09:46:04;29.50;99.90
12115;DHT22;6121;49.810;6.418;2023-07-29T09:48:36;29.70;99.90
12115;DHT22;6121;49.810;6.418;2023-07-29T09:51:15;29.80;99.90
12115;DHT22;6121;49.810;6.418;2023-07-29T09:53:46;29.80;99.80
12115;DHT22;6121;49.810;6.418;2023-07-29T09:56:13;30.20;99.50
12115;DHT22;6121;49.810;6.418;2023-07-29T09:58:39;30.00;98.60
12115;DHT22;6121;49.810;6.418;2023-07-29T10:01:09;29.90;99.20
12115;DHT22;6121;49.810;6.418;2023-07-29T10:03:35;30.10;98.80
12115;DHT22;6121;49.810;6.418;2023-07-29T10:06:02;29.60;98.40
12115;DHT22;6121;49.810;6.418;2023-07-29T10:08:31;29.50;98.50
12115;DHT22;6121;49.810;6.418;2023-07-29T10:11:09;29.60;98.40
12115;DHT22;6121;49.810;6.418;2023-07-29T10:13:35;29.70;98.10
12115;DHT22;6121;49.810;6.418;2023-07-29T10:16:02;29.80;98.10
12115;DHT22;6121;49.810;6.418;2023-07-29T10:18:29;30.40;97.60
12115;DHT22;6121;49.810;6.418;2023-07-29T10:20:57;30.50;97.40
12115;DHT22;6121;49.810;6.418;2023-07-29T10:23:25;30.50;96.10
12115;DHT22;6121;49.810;6.418;2023-07-29T10:26:12;29.90;96.00
12115;DHT22;6121;49.810;6.418;2023-07-29T10:28:47;29.20;96.40
12115;DHT22;6121;49.810;6.418;2023-07-29T10:31:15;29.30;96.90
12115;DHT22;6121;49.810;6.418;2023-07-29T10:33:41;29.20;97.10
12115;DHT22;6121;49.810;6.418;2023-07-29T10:36:08;29.80;96.80
12115;DHT22;6121;49.810;6.418;2023-07-29T10:38:34;30.80;95.70
12115;DHT22;6121;49.810;6.418;2023-07-29T10:41:01;31.40;94.00
12115;DHT22;6121;49.810;6.418;2023-07-29T10:43:35;31.30;94.30
12115;DHT22;6121;49.810;6.418;2023-07-29T10:46:22;31.60;93.70
12115;DHT22;6121;49.810;6.418;2023-07-29T10:48:55;31.20;93.90
12115;DHT22;6121;49.810;6.418;2023-07-29T10:51:34;31.30;93.40
12115;DHT22;6121;49.810;6.418;2023-07-29T10:54:14;31.30;93.70
12115;DHT22;6121;49.810;6.418;2023-07-29T10:56:42;30.60;93.50
12115;DHT22;6121;49.810;6.418;2023-07-29T11:01:39;30.00;94.40
12115;DHT22;6121;49.810;6.418;2023-07-29T11:07:18;30.00;94.20
12115;DHT22;6121;49.810;6.418;2023-07-29T11:15:27;30.70;93.30
12115;DHT22;6121;49.810;6.418;2023-07-29T11:18:00;30.70;93.40
12115;DHT22;6121;49.810;6.418;2023-07-29T11:20:33;30.50;93.20
12115;DHT22;6121;49.810;6.418;2023-07-29T11:23:03;30.70;92.90
12115;DHT22;6121;49.810;6.418;2023-07-29T11:25:30;30.70;93.00
12115;DHT22;6121;49.810;6.418;2023-07-29T11:27:57;30.50;92.70
12115;DHT22;6121;49.810;6.418;2023-07-29T11:30:23;30.50;92.20
12115;DHT22;6121;49.810;6.418;2023-07-29T11:32:53;30.60;92.40
12115;DHT22;6121;49.810;6.418;2023-07-29T11:35:19;30.60;92.10
12115;DHT22;6121;49.810;6.418;2023-07-29T11:37:50;30.70;91.40
12115;DHT22;6121;49.810;6.418;2023-07-29T11:40:21;30.70;90.90
12115;DHT22;6121;49.810;6.418;2023-07-29T11:42:48;30.70;90.60
12115;DHT22;6121;49.810;6.418;2023-07-29T11:45:16;30.30;91.10
12115;DHT22;6121;49.810;6.418;2023-07-29T11:47:42;30.10;91.50
12115;DHT22;6121;49.810;6.418;2023-07-29T11:50:09;30.00;91.50
12115;DHT22;6121;49.810;6.418;2023-07-29T11:52:37;29.60;91.80
12115;DHT22;6121;49.810;6.418;2023-07-29T11:55:04;29.60;92.20
12115;DHT22;6121;49.810;6.418;2023-07-29T11:57:35;29.90;92.40
12115;DHT22;6121;49.810;6.418;2023-07-29T12:00:06;29.70;91.60
12115;DHT22;6121;49.810;6.418;2023-07-29T12:02:39;29.60;91.90
12115;DHT22;6121;49.810;6.418;2023-07-29T12:05:05;29.40;92.30
12115;DHT22;6121;49.810;6.418;2023-07-29T12:07:32;29.30;91.40
12115;DHT22;6121;49.810;6.418;2023-07-29T12:10:02;29.10;91.80
12115;DHT22;6121;49.810;6.418;2023-07-29T12:12:29;29.30;92.20
12115;DHT22;6121;49.810;6.418;2023-07-29T12:14:56;29.30;91.50
12115;DHT22;6121;49.810;6.418;2023-07-29T12:17:22;29.20;91.00
12115;DHT22;6121;49.810;6.418;2023-07-29T12:19:47;29.30;91.20
12115;DHT22;6121;49.810;6.418;2023-07-29T12:22:18;29.40;90.70
12115;DHT22;6121;49.810;6.418;2023-07-29T12:24:44;29.40;90.70
12115;DHT22;6121;49.810;6.418;2023-07-29T12:27:12;29.30;90.60
12115;DHT22;6121;49.810;6.418;2023-07-29T12:29:42;29.30;90.80
12115;DHT22;6121;49.810;6.418;2023-07-29T12:32:09;29.30;89.90
12115;DHT22;6121;49.810;6.418;2023-07-29T12:34:37;29.30;90.20
12115;DHT22;6121;49.810;6.418;2023-07-29T12:37:04;29.50;90.20
12115;DHT22;6121;49.810;6.418;2023-07-29T12:39:34;29.60;90.10
12115;DHT22;6121;49.810;6.418;2023-07-29T12:42:01;29.60;90.20
12115;DHT22;6121;49.810;6.418;2023-07-29T12:44:31;29.50;90.50
12115;DHT22;6121;49.810;6.418;2023-07-29T12:46:57;29.50;90.50
12115;DHT22;6121;49.810;6.418;2023-07-29T12:49:23;29.50;90.60
12115;DHT22;6121;49.810;6.418;2023-07-29T12:51:50;29.50;90.40
12115;DHT22;6121;49.810;6.418;2023-07-29T12:54:16;29.20;90.10
12115;DHT22;6121;49.810;6.418;2023-07-29T12:56:41;29.20;90.70
12115;DHT22;6121;49.810;6.418;2023-07-29T12:59:07;29.10;90.50
12115;DHT22;6121;49.810;6.418;2023-07-29T13:01:33;29.30;90.80
12115;DHT22;6121;49.810;6.418;2023-07-29T13:03:59;29.20;90.60
12115;DHT22;6121;49.810;6.418;2023-07-29T13:06:24;29.10;90.80
12115;DHT22;6121;49.810;6.418;2023-07-29T13:08:50;28.60;91.00
12115;DHT22;6121;49.810;6.418;2023-07-29T13:11:16;28.60;91.30
12115;DHT22;6121;49.810;6.418;2023-07-29T13:13:42;28.70;91.50
12115;DHT22;6121;49.810;6.418;2023-07-29T13:16:08;28.70;91.80
12115;DHT22;6121;49.810;6.418;2023-07-29T13:18:34;28.50;91.90
12115;DHT22;6121;49.810;6.418;2023-07-29T13:21:00;28.60;92.20
12115;DHT22;6121;49.810;6.418;2023-07-29T13:23:26;28.80;92.10
12115;DHT22;6121;49.810;6.418;2023-07-29T13:25:52;28.80;91.80
12115;DHT22;6121;49.810;6.418;2023-07-29T13:28:18;28.70;91.30
12115;DHT22;6121;49.810;6.418;2023-07-29T13:30:45;28.70;91.40
12115;DHT22;6121;49.810;6.418;2023-07-29T13:33:10;28.60;91.50
12115;DHT22;6121;49.810;6.418;2023-07-29T13:35:36;28.40;91.60
12115;DHT22;6121;49.810;6.418;2023-07-29T13:38:02;28.50;92.00
12115;DHT22;6121;49.810;6.418;2023-07-29T13:40:28;28.50;92.00
12115;DHT22;6121;49.810;6.418;2023-07-29T13:42:55;28.30;91.60
12115;DHT22;6121;49.810;6.418;2023-07-29T13:45:21;28.30;91.80
12115;DHT22;6121;49.810;6.418;2023-07-29T13:47:48;28.20;92.50
12115;DHT22;6121;49.810;6.418;2023-07-29T13:50:14;28.30;92.50
12115;DHT22;6121;49.810;6.418;2023-07-29T13:52:40;28.30;92.40
12115;DHT22;6121;49.810;6.418;2023-07-29T13:55:06;28.40;92.10
12115;DHT22;6121;49.810;6.418;2023-07-29T13:57:32;28.20;92.10
12115;DHT22;6121;49.810;6.418;2023-07-29T13:59:58;28.20;92.40
12115;DHT22;6121;49.810;6.418;2023-07-29T14:02:24;28.10;92.30
12115;DHT22;6121;49.810;6.418;2023-07-29T14:04:52;28.00;92.80
12115;DHT22;6121;49.810;6.418;2023-07-29T14:07:18;28.10;93.20
12115;DHT22;6121;49.810;6.418;2023-07-29T14:09:44;28.10;93.00
12115;DHT22;6121;49.810;6.418;2023-07-29T14:12:10;28.00;92.70
12115;DHT22;6121;49.810;6.418;2023-07-29T14:14:40;28.00;92.50
12115;DHT22;6121;49.810;6.418;2023-07-29T14:17:06;27.90;92.40
12115;DHT22;6121;49.810;6.418;2023-07-29T14:19:34;27.90;92.70
12115;DHT22;6121;49.810;6.418;2023-07-29T14:22:00;27.80;92.60
12115;DHT22;6121;49.810;6.418;2023-07-29T14:24:26;27.80;92.70
12115;DHT22;6121;49.810;6.418;2023-07-29T14:26:51;27.70;92.50
12115;DHT22;6121;49.810;6.418;2023-07-29T14:29:17;27.80;92.40
12115;DHT22;6121;49.810;6.418;2023-07-29T14:31:43;27.90;92.60
12115;DHT22;6121;49.810;6.418;2023-07-29T14:34:09;27.70;92.20
12115;DHT22;6121;49.810;6.418;2023-07-29T14:36:36;27.40;92.50
12115;DHT22;6121;49.810;6.418;2023-07-29T14:39:02;27.20;92.80
12115;DHT22;6121;49.810;6.418;2023-07-29T14:41:27;27.00;93.30
12115;DHT22;6121;49.810;6.418;2023-07-29T14:43:53;27.10;93.30
12115;DHT22;6121;49.810;6.418;2023-07-29T14:46:19;27.10;93.30
12115;DHT22;6121;49.810;6.418;2023-07-29T14:48:45;27.20;93.20
12115;DHT22;6121;49.810;6.418;2023-07-29T14:51:13;27.30;93.50
12115;DHT22;6121;49.810;6.418;2023-07-29T14:53:39;27.30;93.60
12115;DHT22;6121;49.810;6.418;2023-07-29T14:56:05;27.30;93.60
12115;DHT22;6121;49.810;6.418;2023-07-29T14:58:31;27.20;93.60
12115;DHT22;6121;49.810;6.418;2023-07-29T15:00:57;27.10;93.60
12115;DHT22;6121;49.810;6.418;2023-07-29T15:03:24;27.10;93.60
12115;DHT22;6121;49.810;6.418;2023-07-29T15:05:50;27.00;93.80
12115;DHT22;6121;49.810;6.418;2023-07-29T15:08:16;27.00;93.80
12115;DHT22;6121;49.810;6.418;2023-07-29T15:10:49;26.90;93.80
12115;DHT22;6121;49.810;6.418;2023-07-29T15:13:15;27.00;93.70
12115;DHT22;6121;49.810;6.418;2023-07-29T15:15:44;27.00;93.80
12115;DHT22;6121;49.810;6.418;2023-07-29T15:18:11;27.00;93.80
12115;DHT22;6121;49.810;6.418;2023-07-29T15:20:36;26.90;93.90
12115;DHT22;6121;49.810;6.418;2023-07-29T15:23:02;26.80;93.30
12115;DHT22;6121;49.810;6.418;2023-07-29T15:25:28;26.70;93.40
12115;DHT22;6121;49.810;6.418;2023-07-29T15:27:54;26.60;93.70
12115;DHT22;6121;49.810;6.418;2023-07-29T15:30:20;26.50;93.80
12115;DHT22;6121;49.810;6.418;2023-07-29T15:32:46;26.40;94.00
12115;DHT22;6121;49.810;6.418;2023-07-29T15:35:12;26.40;94.10
12115;DHT22;6121;49.810;6.418;2023-07-29T15:37:38;26.60;94.20
12115;DHT22;6121;49.810;6.418;2023-07-29T15:40:04;26.70;94.40
12115;DHT22;6121;49.810;6.418;2023-07-29T15:42:30;26.70;94.50
12115;DHT22;6121;49.810;6.418;2023-07-29T15:44:56;26.80;94.40
12115;DHT22;6121;49.810;6.418;2023-07-29T15:47:22;26.70;94.40
12115;DHT22;6121;49.810;6.418;2023-07-29T15:49:48;26.80;94.40
12115;DHT22;6121;49.810;6.418;2023-07-29T15:52:13;26.70;94.40
12115;DHT22;6121;49.810;6.418;2023-07-29T15:54:41;26.70;94.60
12115;DHT22;6121;49.810;6.418;2023-07-29T15:57:07;26.70;94.70